Terminal Aerodrome Forecast
Issued by NWS Flagstaff, AZ

Home | Current Version | Previous Version | Text Only | Print | Product List | Glossary On
Versions: 1 2 3 4 5 6 7 8 9 10 11 12 13 14 15 16 17
000
FTUS45 KFGZ 052345
TAFINW
TAF
KINW 052345Z 0600/0624 23012G18KT P6SM VCSH SCT080 OVC110
      TEMPO 0600/0604 RA BKN070
     FM060400 25010KT P6SM SCT080 BKN120
     FM061800 26012KT P6SM SCT080 BKN120 PROB30 0621/0624 VRB15G30KT
      TSRA BKN080CB=

USA.gov is the U.S. government's official web portal to all federal, state and local government web resources and services.